createdAt,value
2023-03-05T00:01:15.584Z,95.41
2023-03-05T00:03:43.987Z,95.95
2023-03-05T00:06:12.459Z,96.84
2023-03-05T00:08:40.890Z,97.29
2023-03-05T00:11:12.082Z,96.66
2023-03-05T00:13:40.978Z,95.66
2023-03-05T00:16:11.475Z,95.44
2023-03-05T00:18:41.364Z,95.13
2023-03-05T00:21:20.548Z,94.68
2023-03-05T00:23:50.895Z,94.42
2023-03-05T00:26:19.378Z,94.74
2023-03-05T00:28:50.056Z,95.45
2023-03-05T00:31:19.177Z,95.86
2023-03-05T00:33:53.300Z,95.50
2023-03-05T00:36:21.594Z,95.72
2023-03-05T00:38:50.106Z,95.33
2023-03-05T00:41:18.757Z,94.90
2023-03-05T00:43:47.131Z,95.06
2023-03-05T00:46:15.601Z,95.71
2023-03-05T00:48:44.417Z,95.85
2023-03-05T00:51:14.265Z,95.79
2023-03-05T00:53:42.548Z,96.03
2023-03-05T00:56:10.921Z,96.14
2023-03-05T00:58:39.561Z,96.45
2023-03-05T01:01:08.621Z,97.11
2023-03-05T01:03:37.566Z,97.80
2023-03-05T01:06:08.572Z,98.04
2023-03-05T01:08:38.798Z,98.03
2023-03-05T01:11:08.358Z,97.19
2023-03-05T01:13:37.133Z,96.86
2023-03-05T01:16:06.735Z,96.65
2023-03-05T01:18:35.536Z,96.26
2023-03-05T01:21:05.180Z,97.37
2023-03-05T01:23:34.615Z,98.52
2023-03-05T01:26:04.845Z,100.00
2023-03-05T01:28:33.870Z,100.00
2023-03-05T01:31:02.254Z,100.00
2023-03-05T01:33:30.681Z,100.00
2023-03-05T01:35:59.073Z,100.00
2023-03-05T01:38:27.558Z,100.00
2023-03-05T01:40:55.936Z,100.00
2023-03-05T01:43:28.310Z,100.00
2023-03-05T01:46:36.291Z,100.00
2023-03-05T01:49:16.707Z,100.00
2023-03-05T01:51:56.551Z,100.00
2023-03-05T01:54:29.647Z,100.00
2023-03-05T01:57:00.647Z,100.00
2023-03-05T01:59:30.537Z,100.00
2023-03-05T02:02:00.558Z,100.00
2023-03-05T02:04:36.558Z,100.00
2023-03-05T02:07:05.214Z,100.00
2023-03-05T02:09:33.521Z,100.00
2023-03-05T02:12:01.863Z,100.00
2023-03-05T02:14:31.775Z,100.00
2023-03-05T02:17:00.225Z,100.00
2023-03-05T02:19:28.741Z,100.00
2023-03-05T02:21:58.512Z,100.00
2023-03-05T02:24:36.695Z,100.00
2023-03-05T02:27:06.585Z,100.00
2023-03-05T02:29:39.122Z,100.00
2023-03-05T02:32:08.782Z,100.00
2023-03-05T02:34:37.662Z,100.00
2023-03-05T02:37:09.497Z,100.00
2023-03-05T02:39:39.785Z,100.00
2023-03-05T02:42:08.491Z,100.00
2023-03-05T02:44:36.853Z,100.00
2023-03-05T02:47:05.232Z,100.00
2023-03-05T02:49:33.613Z,100.00
2023-03-05T02:52:01.993Z,100.00
2023-03-05T02:54:31.811Z,100.00
2023-03-05T02:57:00.242Z,100.00
2023-03-05T02:59:28.518Z,100.00
2023-03-05T03:01:56.853Z,100.00
2023-03-05T03:04:25.987Z,100.00
2023-03-05T03:06:54.314Z,100.00
2023-03-05T03:09:22.632Z,100.00
2023-03-05T03:11:52.356Z,100.00
2023-03-05T03:14:20.976Z,100.00
2023-03-05T03:16:49.683Z,100.00
2023-03-05T03:19:18.001Z,100.00
2023-03-05T03:21:46.360Z,100.00
2023-03-05T03:24:14.667Z,99.76
2023-03-05T03:26:43.211Z,99.50
2023-03-05T03:29:13.023Z,99.52
2023-03-05T03:31:41.830Z,99.55
2023-03-05T03:34:10.118Z,99.84
2023-03-05T03:36:38.652Z,99.66
2023-03-05T03:39:09.923Z,99.69
2023-03-05T03:41:38.276Z,99.99
2023-03-05T03:44:08.877Z,99.70
2023-03-05T03:46:39.585Z,98.20
2023-03-05T03:49:09.571Z,95.83
2023-03-05T03:51:37.888Z,93.65
2023-03-05T03:54:06.306Z,89.69
2023-03-05T03:56:34.642Z,86.89
2023-03-05T03:59:02.999Z,85.63
2023-03-05T04:01:31.302Z,84.13
2023-03-05T04:04:01.085Z,81.24
2023-03-05T04:06:29.378Z,79.44
2023-03-05T04:08:57.853Z,78.85
2023-03-05T04:11:26.765Z,78.43
2023-03-05T04:13:55.082Z,77.28
2023-03-05T04:16:23.524Z,76.68
2023-03-05T04:18:51.841Z,76.71
2023-03-05T04:21:21.528Z,77.19
2023-03-05T04:23:49.977Z,77.07
2023-03-05T04:26:18.301Z,77.64
2023-03-05T04:28:46.628Z,78.24
2023-03-05T04:31:15.185Z,78.32
2023-03-05T04:33:43.550Z,78.71
2023-03-05T04:36:11.839Z,78.92
2023-03-05T04:38:41.621Z,78.37
2023-03-05T04:41:09.940Z,77.81
2023-03-05T04:43:38.298Z,77.70
2023-03-05T04:46:06.840Z,77.94
2023-03-05T04:48:35.238Z,78.41
2023-03-05T04:51:03.696Z,78.41
2023-03-05T04:53:31.969Z,77.55
2023-03-05T04:56:02.492Z,78.74
2023-03-05T04:58:31.254Z,81.76
2023-03-05T05:01:03.738Z,85.76
2023-03-05T05:03:32.368Z,89.06
2023-03-05T05:06:01.948Z,90.71
2023-03-05T05:08:31.102Z,91.65
2023-03-05T05:11:03.317Z,93.55
2023-03-05T05:13:32.734Z,95.26
2023-03-05T05:16:01.180Z,96.87
2023-03-05T05:18:29.573Z,99.72
2023-03-05T05:20:58.141Z,100.00
2023-03-05T05:23:26.483Z,100.00
2023-03-05T05:25:58.956Z,100.00
2023-03-05T05:28:29.268Z,100.00
2023-03-05T05:30:57.733Z,100.00
2023-03-05T05:33:27.076Z,100.00
2023-03-05T05:35:55.483Z,100.00
2023-03-05T05:38:23.782Z,100.00
2023-03-05T05:40:52.100Z,100.00
2023-03-05T05:43:20.649Z,100.00
2023-03-05T05:45:50.445Z,100.00
2023-03-05T05:48:18.788Z,100.00
2023-03-05T05:50:47.096Z,100.00
2023-03-05T05:53:15.598Z,98.21
2023-03-05T05:55:43.907Z,95.51
2023-03-05T05:58:12.449Z,96.14
2023-03-05T06:00:40.813Z,99.85
2023-03-05T06:03:10.771Z,100.00
2023-03-05T06:05:39.096Z,95.76
2023-03-05T06:08:07.530Z,91.60
2023-03-05T06:10:36.170Z,87.75
2023-03-05T06:13:04.476Z,86.56
2023-03-05T06:15:33.211Z,89.34
2023-03-05T06:18:02.099Z,91.72
2023-03-05T06:20:31.766Z,95.26
2023-03-05T06:23:00.043Z,98.50
2023-03-05T06:25:28.578Z,98.76
2023-03-05T06:27:59.807Z,98.43
2023-03-05T06:30:28.195Z,100.00
2023-03-05T06:32:56.522Z,99.57
2023-03-05T06:35:25.010Z,99.16
2023-03-05T06:37:54.740Z,98.09
2023-03-05T06:40:23.203Z,99.28
2023-03-05T06:42:51.500Z,97.83
2023-03-05T06:45:19.953Z,95.11
2023-03-05T06:47:48.319Z,89.97
2023-03-05T06:50:16.840Z,86.42
2023-03-05T06:52:45.271Z,84.74
2023-03-05T06:55:15.083Z,82.98
2023-03-05T06:57:43.446Z,82.40
2023-03-05T07:00:13.036Z,82.33
2023-03-05T07:02:41.864Z,82.28
2023-03-05T07:05:10.697Z,82.21
2023-03-05T07:07:39.166Z,80.99
2023-03-05T07:10:08.915Z,81.40
2023-03-05T07:12:38.902Z,80.65
2023-03-05T07:15:08.489Z,79.11
2023-03-05T07:17:36.916Z,78.42
2023-03-05T07:20:06.451Z,77.81
2023-03-05T07:22:34.738Z,78.52
2023-03-05T07:25:03.287Z,77.22
2023-03-05T07:27:31.615Z,77.71
2023-03-05T07:30:01.514Z,76.71
2023-03-05T07:32:29.927Z,75.63
2023-03-05T07:34:58.302Z,75.27
2023-03-05T07:37:26.775Z,74.25
2023-03-05T07:39:55.196Z,73.28
2023-03-05T07:42:23.566Z,72.74
2023-03-05T07:44:51.926Z,72.50
2023-03-05T07:47:23.386Z,72.03
2023-03-05T07:49:51.763Z,71.79
2023-03-05T07:52:20.308Z,71.63
2023-03-05T07:54:48.749Z,72.25
2023-03-05T07:57:17.047Z,71.95
2023-03-05T07:59:45.305Z,71.28
2023-03-05T08:02:14.549Z,72.28
2023-03-05T08:04:44.353Z,71.43
2023-03-05T08:07:16.416Z,71.09
2023-03-05T08:09:44.833Z,71.32
2023-03-05T08:12:13.172Z,70.22
2023-03-05T08:14:41.548Z,69.78
2023-03-05T08:17:09.872Z,69.05
2023-03-05T08:19:38.222Z,68.70
2023-03-05T08:22:08.122Z,71.21
2023-03-05T08:24:36.452Z,72.70
2023-03-05T08:27:04.845Z,70.87
2023-03-05T08:29:33.138Z,71.19
2023-03-05T08:32:01.853Z,70.87
2023-03-05T08:34:30.410Z,72.51
2023-03-05T08:36:58.657Z,71.32
2023-03-05T08:39:30.254Z,69.94
2023-03-05T08:41:58.666Z,67.99
2023-03-05T08:44:27.019Z,67.16
2023-03-05T08:46:55.464Z,66.02
2023-03-05T08:49:24.002Z,64.88
2023-03-05T08:51:52.404Z,64.71
2023-03-05T08:54:20.670Z,64.41
2023-03-05T08:56:50.928Z,63.36
2023-03-05T08:59:19.282Z,62.32
2023-03-05T09:01:48.065Z,61.24
2023-03-05T09:04:16.742Z,59.85
2023-03-05T09:06:45.109Z,59.51
2023-03-05T09:09:14.429Z,57.21
2023-03-05T09:11:42.863Z,56.39
2023-03-05T09:14:12.753Z,57.23
2023-03-05T09:16:41.756Z,55.88
2023-03-05T09:19:12.768Z,55.62
2023-03-05T09:21:41.096Z,56.79
2023-03-05T09:24:09.883Z,56.20
2023-03-05T09:26:38.150Z,55.50
2023-03-05T09:29:07.699Z,55.88
2023-03-05T09:31:37.631Z,55.01
2023-03-05T09:34:08.338Z,53.73
2023-03-05T09:36:36.681Z,56.53
2023-03-05T09:39:07.036Z,58.03
2023-03-05T09:41:51.392Z,58.52
2023-03-05T09:44:28.089Z,58.12
2023-03-05T09:47:10.200Z,57.31
2023-03-05T09:49:51.517Z,58.62
2023-03-05T09:52:23.496Z,57.64
2023-03-05T09:54:57.191Z,59.01
2023-03-05T09:57:34.302Z,60.48
2023-03-05T10:00:09.021Z,61.88
2023-03-05T10:02:48.113Z,61.29
2023-03-05T10:05:22.706Z,62.84
2023-03-05T10:07:57.046Z,63.65
2023-03-05T10:10:28.766Z,63.27
2023-03-05T10:13:01.749Z,64.29
2023-03-05T10:15:41.631Z,65.57
2023-03-05T10:18:24.208Z,65.38
2023-03-05T10:20:59.204Z,64.01
2023-03-05T10:23:31.889Z,64.79
2023-03-05T10:26:12.060Z,65.49
2023-03-05T10:28:47.991Z,65.59
2023-03-05T10:31:29.649Z,64.82
2023-03-05T10:34:13.638Z,63.53
2023-03-05T10:37:01.237Z,60.38
2023-03-05T10:39:56.150Z,60.39
2023-03-05T10:42:34.201Z,60.18
2023-03-05T10:45:14.258Z,61.64
2023-03-05T10:47:51.641Z,62.74
2023-03-05T10:50:24.367Z,62.24
2023-03-05T10:53:04.400Z,62.08
2023-03-05T10:55:32.705Z,61.28
2023-03-05T10:58:02.787Z,61.42
2023-03-05T11:00:32.388Z,61.66
2023-03-05T11:03:03.742Z,60.37
2023-03-05T11:05:49.726Z,61.13
2023-03-05T11:08:31.125Z,61.14
2023-03-05T11:11:12.962Z,62.81
2023-03-05T11:13:52.508Z,62.26
2023-03-05T11:16:23.576Z,62.64
2023-03-05T11:19:11.910Z,63.62
2023-03-05T11:21:41.958Z,64.31
2023-03-05T11:24:15.090Z,63.60
2023-03-05T11:26:51.451Z,63.12
2023-03-05T11:29:23.717Z,63.72
2023-03-05T11:31:53.439Z,64.36
2023-03-05T11:34:36.044Z,63.30
2023-03-05T11:37:08.139Z,63.91
2023-03-05T11:39:39.066Z,63.82
2023-03-05T11:42:14.414Z,64.08
2023-03-05T11:44:48.238Z,62.58
2023-03-05T11:47:27.953Z,63.53
2023-03-05T11:50:02.368Z,65.74
2023-03-05T11:52:35.390Z,64.96
2023-03-05T11:55:08.849Z,66.88
2023-03-05T11:57:44.973Z,66.65
2023-03-05T12:00:19.182Z,67.59
2023-03-05T12:02:51.990Z,66.21
2023-03-05T12:05:21.922Z,64.76
2023-03-05T12:07:55.477Z,64.77
2023-03-05T12:10:26.508Z,64.69
2023-03-05T12:13:06.446Z,64.68
2023-03-05T12:15:48.015Z,63.49
2023-03-05T12:18:31.948Z,63.18
2023-03-05T12:21:07.650Z,62.61
2023-03-05T12:23:51.928Z,63.16
2023-03-05T12:26:40.796Z,62.77
2023-03-05T12:29:29.187Z,63.96
2023-03-05T12:31:57.891Z,63.84
2023-03-05T12:34:49.956Z,64.19
2023-03-05T12:37:51.464Z,64.30
2023-03-05T12:40:25.962Z,64.47
2023-03-05T12:42:59.455Z,64.44
2023-03-05T12:45:39.569Z,64.99
2023-03-05T12:48:43.654Z,64.76
2023-03-05T12:51:29.420Z,65.19
2023-03-05T12:53:58.113Z,66.63
2023-03-05T12:56:32.794Z,67.29
2023-03-05T12:59:04.953Z,68.13
2023-03-05T13:01:42.057Z,69.70
2023-03-05T13:04:21.227Z,71.91
2023-03-05T13:07:00.319Z,71.88
2023-03-05T13:09:31.609Z,72.83
2023-03-05T13:12:02.051Z,72.26
2023-03-05T13:14:35.991Z,70.68
2023-03-05T13:17:24.922Z,71.21
2023-03-05T13:19:53.962Z,71.76
2023-03-05T13:22:24.703Z,71.15
2023-03-05T13:25:14.711Z,71.79
2023-03-05T13:27:45.239Z,72.42
2023-03-05T13:30:25.802Z,73.49
2023-03-05T13:32:56.304Z,74.00
2023-03-05T13:35:24.814Z,74.93
2023-03-05T13:37:53.331Z,79.25
2023-03-05T13:40:25.086Z,79.55
2023-03-05T13:42:56.794Z,80.64
2023-03-05T13:45:29.035Z,82.04
2023-03-05T13:47:59.528Z,88.54
2023-03-05T13:50:30.125Z,91.11
2023-03-05T13:53:15.743Z,92.23
2023-03-05T13:55:44.380Z,95.12
2023-03-05T13:58:48.809Z,98.40
2023-03-05T14:01:28.936Z,99.43
2023-03-05T14:04:37.356Z,100.00
2023-03-05T14:07:08.184Z,100.00
2023-03-05T14:09:48.341Z,100.00
2023-03-05T14:12:30.367Z,100.00
2023-03-05T14:15:02.456Z,100.00
2023-03-05T14:17:41.925Z,100.00
2023-03-05T14:20:27.468Z,100.00
2023-03-05T14:22:58.141Z,100.00
2023-03-05T14:25:35.036Z,100.00
2023-03-05T14:28:05.034Z,100.00
2023-03-05T14:30:36.320Z,100.00
2023-03-05T14:33:05.566Z,100.00
2023-03-05T14:35:34.386Z,100.00
2023-03-05T14:38:02.845Z,100.00
2023-03-05T14:40:33.452Z,100.00
2023-03-05T14:43:03.087Z,100.00
2023-03-05T14:45:33.147Z,100.00
2023-03-05T14:48:04.730Z,100.00
2023-03-05T14:50:38.080Z,100.00
2023-03-05T14:53:10.345Z,100.00
2023-03-05T14:55:39.904Z,100.00
2023-03-05T14:58:13.830Z,100.00
2023-03-05T15:00:43.018Z,97.64
2023-03-05T15:03:14.241Z,99.27
2023-03-05T15:05:43.655Z,100.00
2023-03-05T15:08:16.384Z,100.00
2023-03-05T15:10:44.718Z,100.00
2023-03-05T15:13:18.307Z,100.00
2023-03-05T15:15:48.828Z,100.00
2023-03-05T15:18:21.263Z,100.00
2023-03-05T15:20:52.104Z,100.00
2023-03-05T15:23:20.506Z,100.00
2023-03-05T15:25:49.103Z,100.00
2023-03-05T15:28:17.670Z,100.00
2023-03-05T15:30:48.202Z,100.00
2023-03-05T15:33:19.085Z,100.00
2023-03-05T15:35:47.564Z,100.00
2023-03-05T15:38:16.321Z,100.00
2023-03-05T15:40:46.169Z,100.00
2023-03-05T15:43:15.195Z,100.00
2023-03-05T15:45:43.693Z,100.00
2023-03-05T15:48:12.032Z,100.00
2023-03-05T15:50:43.769Z,100.00
2023-03-05T15:53:15.698Z,100.00
2023-03-05T15:55:45.275Z,100.00
2023-03-05T15:58:16.920Z,100.00
2023-03-05T16:00:47.430Z,100.00
2023-03-05T16:03:15.949Z,100.00
2023-03-05T16:05:45.805Z,100.00
2023-03-05T16:08:14.449Z,100.00
2023-03-05T16:10:42.980Z,100.00
2023-03-05T16:13:14.711Z,100.00
2023-03-05T16:15:44.544Z,100.00
2023-03-05T16:18:15.538Z,100.00
2023-03-05T16:20:45.452Z,100.00
2023-03-05T16:23:14.003Z,100.00
2023-03-05T16:25:42.401Z,100.00
2023-03-05T16:28:11.451Z,100.00
2023-03-05T16:30:40.032Z,100.00
2023-03-05T16:33:08.676Z,100.00
2023-03-05T16:35:37.115Z,100.00
2023-03-05T16:38:08.534Z,100.00
2023-03-05T16:41:06.084Z,100.00
2023-03-05T16:43:27.594Z,100.00
2023-03-05T16:45:55.915Z,100.00
2023-03-05T16:48:24.454Z,100.00
2023-03-05T16:50:52.807Z,100.00
2023-03-05T16:53:22.485Z,100.00
2023-03-05T16:55:50.960Z,100.00
2023-03-05T16:58:19.372Z,100.00
2023-03-05T17:00:49.129Z,100.00
2023-03-05T17:03:17.597Z,100.00
2023-03-05T17:05:45.905Z,100.00
2023-03-05T17:08:15.208Z,100.00
2023-03-05T17:10:45.457Z,100.00
2023-03-05T17:13:14.100Z,100.00
2023-03-05T17:18:11.936Z,100.00
2023-03-05T17:20:40.954Z,100.00
2023-03-05T17:23:09.292Z,100.00
2023-03-05T17:25:38.286Z,100.00
2023-03-05T17:28:08.163Z,100.00
2023-03-05T17:30:37.228Z,100.00
2023-03-05T17:33:06.388Z,100.00
2023-03-05T17:35:35.384Z,100.00
2023-03-05T17:38:05.426Z,100.00
2023-03-05T17:40:33.875Z,100.00
2023-03-05T17:43:02.474Z,100.00
2023-03-05T17:45:32.644Z,100.00
2023-03-05T17:48:01.065Z,100.00
2023-03-05T17:50:29.733Z,100.00
2023-03-05T17:52:58.117Z,100.00
2023-03-05T17:55:26.538Z,100.00
2023-03-05T17:57:55.103Z,100.00
2023-03-05T18:00:24.986Z,100.00
2023-03-05T18:02:55.171Z,100.00
2023-03-05T18:05:25.120Z,100.00
2023-03-05T18:07:54.975Z,100.00
2023-03-05T18:10:25.460Z,100.00
2023-03-05T18:12:54.358Z,100.00
2023-03-05T18:15:24.679Z,100.00
2023-03-05T18:17:54.841Z,100.00
2023-03-05T18:20:28.067Z,100.00
2023-03-05T18:22:57.269Z,100.00
2023-03-05T18:25:31.309Z,100.00
2023-03-05T18:28:00.543Z,100.00
2023-03-05T18:30:30.550Z,100.00
2023-03-05T18:33:00.727Z,100.00
2023-03-05T18:35:30.282Z,100.00
2023-03-05T18:37:59.000Z,100.00
2023-03-05T18:40:29.435Z,100.00
2023-03-05T18:43:00.255Z,100.00
2023-03-05T18:45:29.123Z,100.00
2023-03-05T18:47:57.965Z,100.00
2023-03-05T18:50:29.206Z,100.00
2023-03-05T18:52:57.552Z,100.00
2023-03-05T18:55:27.825Z,100.00
2023-03-05T18:57:56.832Z,100.00
2023-03-05T19:00:27.370Z,100.00
2023-03-05T19:02:56.905Z,100.00
2023-03-05T19:05:28.094Z,100.00
2023-03-05T19:07:57.064Z,100.00
2023-03-05T19:10:25.474Z,100.00
2023-03-05T19:13:34.553Z,100.00
2023-03-05T19:16:08.557Z,100.00
2023-03-05T19:18:44.019Z,100.00
2023-03-05T19:21:13.872Z,100.00
2023-03-05T19:23:42.383Z,100.00
2023-03-05T19:26:10.712Z,100.00
2023-03-05T19:28:38.985Z,100.00
2023-03-05T19:31:07.510Z,100.00
2023-03-05T19:33:36.014Z,100.00
2023-03-05T19:36:04.353Z,100.00
2023-03-05T19:38:34.194Z,100.00
2023-03-05T19:41:02.523Z,100.00
2023-03-05T19:43:31.036Z,100.00
2023-03-05T19:46:02.247Z,100.00
2023-03-05T19:48:32.006Z,100.00
2023-03-05T19:51:00.781Z,100.00
2023-03-05T19:53:29.259Z,100.00
2023-03-05T19:55:59.144Z,100.00
2023-03-05T19:58:27.511Z,100.00
2023-03-05T20:00:55.783Z,100.00
2023-03-05T20:03:24.129Z,100.00
2023-03-05T20:05:52.407Z,100.00
2023-03-05T20:08:21.068Z,100.00
2023-03-05T20:10:49.457Z,100.00
2023-03-05T20:13:19.317Z,100.00
2023-03-05T20:15:47.735Z,100.00
2023-03-05T20:18:16.155Z,100.00
2023-03-05T20:20:44.575Z,100.00
2023-03-05T20:23:13.086Z,100.00
2023-03-05T20:25:41.545Z,100.00
2023-03-05T20:28:10.024Z,100.00
2023-03-05T20:30:39.981Z,100.00
2023-03-05T20:33:08.539Z,100.00
2023-03-05T20:35:36.879Z,100.00
2023-03-05T20:38:25.135Z,100.00
2023-03-05T20:40:54.720Z,100.00
2023-03-05T20:43:24.411Z,100.00
2023-03-05T20:45:54.724Z,100.00
2023-03-05T20:48:23.326Z,100.00
2023-03-05T20:50:51.840Z,100.00
2023-03-05T20:53:20.935Z,100.00
2023-03-05T20:55:49.572Z,100.00
2023-03-05T20:58:18.441Z,100.00
2023-03-05T21:00:46.801Z,100.00
2023-03-05T21:03:16.667Z,100.00
2023-03-05T21:05:46.158Z,100.00
2023-03-05T21:08:14.634Z,100.00
2023-03-05T21:10:42.960Z,100.00
2023-03-05T21:13:11.384Z,100.00
2023-03-05T21:15:42.093Z,100.00
2023-03-05T21:18:12.105Z,100.00
2023-03-05T21:20:41.882Z,100.00
2023-03-05T21:23:10.342Z,100.00
2023-03-05T21:25:38.771Z,100.00
2023-03-05T21:28:09.541Z,100.00
2023-03-05T21:30:42.144Z,100.00
2023-03-05T21:33:13.159Z,100.00
2023-03-05T21:35:43.136Z,100.00
2023-03-05T21:38:12.404Z,100.00
2023-03-05T21:40:45.455Z,100.00
2023-03-05T21:43:14.651Z,100.00
2023-03-05T21:45:43.746Z,100.00
2023-03-05T21:48:12.163Z,100.00
2023-03-05T21:50:43.611Z,100.00
2023-03-05T21:53:14.774Z,100.00
2023-03-05T21:56:28.296Z,100.00
2023-03-05T21:58:56.894Z,100.00
2023-03-05T22:01:25.300Z,100.00
2023-03-05T22:03:54.132Z,100.00
2023-03-05T22:06:24.321Z,100.00
2023-03-05T22:08:52.631Z,100.00
2023-03-05T22:11:22.531Z,100.00
2023-03-05T22:13:51.001Z,100.00
2023-03-05T22:16:24.363Z,100.00
2023-03-05T22:18:53.243Z,100.00
2023-03-05T22:21:25.875Z,100.00
2023-03-05T22:23:57.224Z,100.00
2023-03-05T22:26:26.651Z,100.00
2023-03-05T22:28:55.111Z,100.00
2023-03-05T22:31:25.534Z,100.00
2023-03-05T22:33:54.380Z,100.00
2023-03-05T22:36:24.879Z,100.00
2023-03-05T22:38:53.726Z,100.00
2023-03-05T22:41:22.734Z,100.00
2023-03-05T22:43:52.630Z,100.00
2023-03-05T22:46:23.652Z,100.00
2023-03-05T22:48:52.243Z,100.00
2023-03-05T22:51:21.254Z,100.00
2023-03-05T22:53:51.042Z,100.00
2023-03-05T22:56:21.238Z,100.00
2023-03-05T22:58:49.861Z,100.00
2023-03-05T23:01:19.711Z,100.00
2023-03-05T23:04:41.461Z,100.00
2023-03-05T23:07:10.027Z,100.00
2023-03-05T23:09:39.831Z,100.00
2023-03-05T23:12:08.954Z,100.00
2023-03-05T23:14:37.346Z,100.00
2023-03-05T23:17:05.892Z,100.00
2023-03-05T23:19:39.789Z,100.00
2023-03-05T23:22:10.142Z,100.00
2023-03-05T23:24:40.033Z,100.00
2023-03-05T23:27:09.282Z,100.00
2023-03-05T23:30:16.510Z,100.00
2023-03-05T23:32:46.565Z,100.00
2023-03-05T23:35:16.916Z,100.00
2023-03-05T23:37:45.568Z,100.00
2023-03-05T23:40:18.567Z,100.00
2023-03-05T23:42:47.473Z,100.00
2023-03-05T23:45:17.390Z,96.58
2023-03-05T23:47:48.313Z,93.51
2023-03-05T23:50:18.582Z,92.56
2023-03-05T23:52:47.429Z,92.08
2023-03-05T23:55:19.796Z,93.03
2023-03-05T23:57:49.511Z,93.42
